sensor_id;sensor_type;location;lat;lon;timestamp;pressure;altitude;pressure_sealevel;temperature;humidity
29535;BME280;72082;52.650;8.116;2023-12-20T00:02:13;101153.34;;;6.13;100.00
29535;BME280;72082;52.650;8.116;2023-12-20T00:04:39;101150.78;;;6.10;100.00
29535;BME280;72082;52.650;8.116;2023-12-20T00:07:04;101155.78;;;6.07;100.00
29535;BME280;72082;52.650;8.116;2023-12-20T00:09:29;101160.81;;;6.05;100.00
29535;BME280;72082;52.650;8.116;2023-12-20T00:11:54;101165.91;;;6.04;100.00
29535;BME280;72082;52.650;8.116;2023-12-20T00:14:19;101159.94;;;6.03;100.00
29535;BME280;72082;52.650;8.116;2023-12-20T00:16:44;101158.22;;;6.02;100.00
29535;BME280;72082;52.650;8.116;2023-12-20T00:19:11;101159.84;;;5.99;100.00
29535;BME280;72082;52.650;8.116;2023-12-20T00:21:36;101154.72;;;5.97;100.00
29535;BME280;72082;52.650;8.116;2023-12-20T00:24:01;101153.00;;;5.96;100.00
29535;BME280;72082;52.650;8.116;2023-12-20T00:26:27;101158.91;;;5.95;100.00
29535;BME280;72082;52.650;8.116;2023-12-20T00:28:52;101167.31;;;5.91;100.00
29535;BME280;72082;52.650;8.116;2023-12-20T00:31:17;101164.69;;;5.88;100.00
29535;BME280;72082;52.650;8.116;2023-12-20T00:33:42;101165.50;;;5.87;100.00
29535;BME280;72082;52.650;8.116;2023-12-20T00:36:07;101165.41;;;5.84;100.00
29535;BME280;72082;52.650;8.116;2023-12-20T00:38:33;101157.88;;;5.87;100.00
29535;BME280;72082;52.650;8.116;2023-12-20T00:40:58;101150.25;;;5.87;100.00
29535;BME280;72082;52.650;8.116;2023-12-20T00:43:23;101143.47;;;5.86;100.00
29535;BME280;72082;52.650;8.116;2023-12-20T00:45:48;101144.28;;;5.85;100.00
29535;BME280;72082;52.650;8.116;2023-12-20T00:48:13;101130.66;;;5.83;100.00
29535;BME280;72082;52.650;8.116;2023-12-20T00:50:39;101128.00;;;5.79;100.00
29535;BME280;72082;52.650;8.116;2023-12-20T00:53:04;101135.59;;;5.77;100.00
29535;BME280;72082;52.650;8.116;2023-12-20T00:55:29;101144.94;;;5.78;100.00
29535;BME280;72082;52.650;8.116;2023-12-20T00:57:54;101144.19;;;5.82;100.00
29535;BME280;72082;52.650;8.116;2023-12-20T01:00:20;101142.63;;;5.87;100.00
29535;BME280;72082;52.650;8.116;2023-12-20T01:02:45;101142.50;;;5.84;100.00
29535;BME280;72082;52.650;8.116;2023-12-20T01:05:10;101146.81;;;5.85;100.00
29535;BME280;72082;52.650;8.116;2023-12-20T01:07:35;101140.94;;;5.88;100.00
29535;BME280;72082;52.650;8.116;2023-12-20T01:10:01;101130.78;;;5.89;100.00
29535;BME280;72082;52.650;8.116;2023-12-20T01:12:26;101128.22;;;5.88;100.00
29535;BME280;72082;52.650;8.116;2023-12-20T01:14:51;101128.91;;;5.82;100.00
29535;BME280;72082;52.650;8.116;2023-12-20T01:17:16;101122.00;;;5.77;100.00
29535;BME280;72082;52.650;8.116;2023-12-20T01:19:41;101120.19;;;5.71;100.00
29535;BME280;72082;52.650;8.116;2023-12-20T01:22:07;101125.09;;;5.63;100.00
29535;BME280;72082;52.650;8.116;2023-12-20T01:24:32;101123.31;;;5.59;100.00
29535;BME280;72082;52.650;8.116;2023-12-20T01:26:57;101121.50;;;5.54;100.00
29535;BME280;72082;52.650;8.116;2023-12-20T01:29:22;101120.50;;;5.47;100.00
29535;BME280;72082;52.650;8.116;2023-12-20T01:31:48;101120.34;;;5.41;100.00
29535;BME280;72082;52.650;8.116;2023-12-20T01:34:13;101116.88;;;5.38;100.00
29535;BME280;72082;52.650;8.116;2023-12-20T01:36:38;101110.91;;;5.36;100.00
29535;BME280;72082;52.650;8.116;2023-12-20T01:39:03;101111.72;;;5.35;100.00
29535;BME280;72082;52.650;8.116;2023-12-20T01:41:28;101115.91;;;5.33;100.00
29535;BME280;72082;52.650;8.116;2023-12-20T01:43:54;101116.66;;;5.29;100.00
29535;BME280;72082;52.650;8.116;2023-12-20T01:46:20;101114.00;;;5.24;100.00
29535;BME280;72082;52.650;8.116;2023-12-20T01:48:46;101110.53;;;5.21;100.00
29535;BME280;72082;52.650;8.116;2023-12-20T01:51:11;101117.28;;;5.20;100.00
29535;BME280;72082;52.650;8.116;2023-12-20T01:53:37;101117.31;;;5.22;100.00
29535;BME280;72082;52.650;8.116;2023-12-20T01:56:03;101113.03;;;5.19;100.00
29535;BME280;72082;52.650;8.116;2023-12-20T01:58:28;101112.25;;;5.22;100.00
29535;BME280;72082;52.650;8.116;2023-12-20T02:03:23;101108.88;;;5.23;100.00
29535;BME280;72082;52.650;8.116;2023-12-20T02:08:17;101101.28;;;5.24;100.00
29535;BME280;72082;52.650;8.116;2023-12-20T02:10:43;101108.19;;;5.28;100.00
29535;BME280;72082;52.650;8.116;2023-12-20T02:13:08;101115.81;;;5.30;100.00
29535;BME280;72082;52.650;8.116;2023-12-20T02:15:34;101109.94;;;5.31;100.00
29535;BME280;72082;52.650;8.116;2023-12-20T02:17:59;101100.59;;;5.30;100.00
29535;BME280;72082;52.650;8.116;2023-12-20T02:20:24;101107.31;;;5.28;100.00
29535;BME280;72082;52.650;8.116;2023-12-20T02:22:49;101112.31;;;5.25;100.00
29535;BME280;72082;52.650;8.116;2023-12-20T02:25:15;101105.53;;;5.24;100.00
29535;BME280;72082;52.650;8.116;2023-12-20T02:27:40;101091.97;;;5.23;100.00
29535;BME280;72082;52.650;8.116;2023-12-20T02:30:06;101094.50;;;5.23;100.00
29535;BME280;72082;52.650;8.116;2023-12-20T02:32:31;101089.44;;;5.23;100.00
29535;BME280;72082;52.650;8.116;2023-12-20T02:34:57;101083.50;;;5.24;100.00
29535;BME280;72082;52.650;8.116;2023-12-20T02:37:23;101079.38;;;5.28;100.00
29535;BME280;72082;52.650;8.116;2023-12-20T02:39:48;101091.25;;;5.29;100.00
29535;BME280;72082;52.650;8.116;2023-12-20T02:42:13;101090.41;;;5.30;100.00
29535;BME280;72082;52.650;8.116;2023-12-20T02:44:38;101085.41;;;5.33;100.00
29535;BME280;72082;52.650;8.116;2023-12-20T02:47:03;101073.59;;;5.35;100.00
29535;BME280;72082;52.650;8.116;2023-12-20T02:49:29;101070.22;;;5.34;100.00
29535;BME280;72082;52.650;8.116;2023-12-20T02:51:54;101066.03;;;5.36;100.00
29535;BME280;72082;52.650;8.116;2023-12-20T02:54:19;101058.44;;;5.38;100.00
29535;BME280;72082;52.650;8.116;2023-12-20T02:56:45;101044.06;;;5.40;100.00
29535;BME280;72082;52.650;8.116;2023-12-20T02:59:10;101047.47;;;5.39;100.00
29535;BME280;72082;52.650;8.116;2023-12-20T03:01:41;101044.03;;;5.37;100.00
29535;BME280;72082;52.650;8.116;2023-12-20T03:04:07;101053.34;;;5.36;100.00
29535;BME280;72082;52.650;8.116;2023-12-20T03:06:32;101050.81;;;5.38;100.00
29535;BME280;72082;52.650;8.116;2023-12-20T03:08:57;101047.41;;;5.37;100.00
29535;BME280;72082;52.650;8.116;2023-12-20T03:11:26;101042.31;;;5.37;100.00
29535;BME280;72082;52.650;8.116;2023-12-20T03:13:52;101039.84;;;5.39;100.00
29535;BME280;72082;52.650;8.116;2023-12-20T03:16:17;101039.03;;;5.41;100.00
29535;BME280;72082;52.650;8.116;2023-12-20T03:18:42;101047.56;;;5.43;100.00
29535;BME280;72082;52.650;8.116;2023-12-20T03:21:07;101025.56;;;5.44;100.00
29535;BME280;72082;52.650;8.116;2023-12-20T03:23:33;101025.56;;;5.45;100.00
29535;BME280;72082;52.650;8.116;2023-12-20T03:25:59;101027.31;;;5.48;100.00
29535;BME280;72082;52.650;8.116;2023-12-20T03:28:24;101033.31;;;5.50;100.00
29535;BME280;72082;52.650;8.116;2023-12-20T03:30:49;101027.47;;;5.54;100.00
29535;BME280;72082;52.650;8.116;2023-12-20T03:33:15;101025.84;;;5.57;100.00
29535;BME280;72082;52.650;8.116;2023-12-20T03:35:40;101023.34;;;5.60;100.00
29535;BME280;72082;52.650;8.116;2023-12-20T03:38:05;101029.34;;;5.63;100.00
29535;BME280;72082;52.650;8.116;2023-12-20T03:40:30;101025.16;;;5.66;100.00
29535;BME280;72082;52.650;8.116;2023-12-20T03:42:55;101019.28;;;5.67;100.00
29535;BME280;72082;52.650;8.116;2023-12-20T03:45:21;101021.88;;;5.70;100.00
29535;BME280;72082;52.650;8.116;2023-12-20T03:47:46;101019.38;;;5.72;100.00
29535;BME280;72082;52.650;8.116;2023-12-20T03:50:11;101013.47;;;5.74;100.00
29535;BME280;72082;52.650;8.116;2023-12-20T03:52:36;101003.34;;;5.76;100.00
29535;BME280;72082;52.650;8.116;2023-12-20T03:55:02;100993.22;;;5.77;100.00
29535;BME280;72082;52.650;8.116;2023-12-20T03:57:27;100986.41;;;5.76;100.00
29535;BME280;72082;52.650;8.116;2023-12-20T03:59:52;100987.25;;;5.77;100.00
29535;BME280;72082;52.650;8.116;2023-12-20T04:02:17;100988.19;;;5.79;100.00
29535;BME280;72082;52.650;8.116;2023-12-20T04:04:42;101003.38;;;5.77;100.00
29535;BME280;72082;52.650;8.116;2023-12-20T04:07:08;100994.88;;;5.77;100.00
29535;BME280;72082;52.650;8.116;2023-12-20T04:09:33;100983.84;;;5.75;100.00
29535;BME280;72082;52.650;8.116;2023-12-20T04:11:58;100982.97;;;5.74;100.00
29535;BME280;72082;52.650;8.116;2023-12-20T04:14:23;100991.47;;;5.76;100.00
29535;BME280;72082;52.650;8.116;2023-12-20T04:16:48;100992.41;;;5.80;100.00
29535;BME280;72082;52.650;8.116;2023-12-20T04:19:14;100994.13;;;5.81;100.00
29535;BME280;72082;52.650;8.116;2023-12-20T04:21:39;100997.56;;;5.83;100.00
29535;BME280;72082;52.650;8.116;2023-12-20T04:24:04;100991.59;;;5.81;100.00
29535;BME280;72082;52.650;8.116;2023-12-20T04:26:30;100979.63;;;5.77;100.00
29535;BME280;72082;52.650;8.116;2023-12-20T04:28:55;100978.69;;;5.72;100.00
29535;BME280;72082;52.650;8.116;2023-12-20T04:31:20;100971.84;;;5.69;100.00
29535;BME280;72082;52.650;8.116;2023-12-20T04:33:45;100973.50;;;5.66;100.00
29535;BME280;72082;52.650;8.116;2023-12-20T04:36:10;100955.66;;;5.64;100.00
29535;BME280;72082;52.650;8.116;2023-12-20T04:38:36;100964.88;;;5.59;100.00
29535;BME280;72082;52.650;8.116;2023-12-20T04:41:01;100952.09;;;5.56;100.00
29535;BME280;72082;52.650;8.116;2023-12-20T04:43:26;100972.44;;;5.56;100.00
29535;BME280;72082;52.650;8.116;2023-12-20T04:45:52;100974.09;;;5.54;100.00
29535;BME280;72082;52.650;8.116;2023-12-20T04:48:17;100983.47;;;5.56;100.00
29535;BME280;72082;52.650;8.116;2023-12-20T04:50:42;100972.50;;;5.59;100.00
29535;BME280;72082;52.650;8.116;2023-12-20T04:53:07;100978.59;;;5.66;100.00
29535;BME280;72082;52.650;8.116;2023-12-20T04:55:32;100989.69;;;5.71;100.00
29535;BME280;72082;52.650;8.116;2023-12-20T04:57:58;100960.88;;;5.70;100.00
29535;BME280;72082;52.650;8.116;2023-12-20T05:00:23;100967.66;;;5.71;100.00
29535;BME280;72082;52.650;8.116;2023-12-20T05:02:48;100962.63;;;5.74;100.00
29535;BME280;72082;52.650;8.116;2023-12-20T05:05:13;100955.00;;;5.74;100.00
29535;BME280;72082;52.650;8.116;2023-12-20T05:07:38;100955.88;;;5.76;100.00
29535;BME280;72082;52.650;8.116;2023-12-20T05:10:04;100945.84;;;5.81;100.00
29535;BME280;72082;52.650;8.116;2023-12-20T05:12:30;100949.28;;;5.84;100.00
29535;BME280;72082;52.650;8.116;2023-12-20T05:14:55;100946.81;;;5.86;100.00
29535;BME280;72082;52.650;8.116;2023-12-20T05:17:20;100942.63;;;5.89;100.00
29535;BME280;72082;52.650;8.116;2023-12-20T05:19:46;100958.81;;;5.93;100.00
29535;BME280;72082;52.650;8.116;2023-12-20T05:22:11;100941.88;;;5.95;100.00
29535;BME280;72082;52.650;8.116;2023-12-20T05:24:36;100949.56;;;5.96;100.00
29535;BME280;72082;52.650;8.116;2023-12-20T05:27:01;100944.47;;;5.98;100.00
29535;BME280;72082;52.650;8.116;2023-12-20T05:29:27;100949.63;;;5.99;100.00
29535;BME280;72082;52.650;8.116;2023-12-20T05:31:52;100933.50;;;6.00;100.00
29535;BME280;72082;52.650;8.116;2023-12-20T05:34:17;100945.41;;;6.03;100.00
29535;BME280;72082;52.650;8.116;2023-12-20T05:36:42;100940.41;;;6.06;100.00
29535;BME280;72082;52.650;8.116;2023-12-20T05:39:07;100950.63;;;6.07;100.00
29535;BME280;72082;52.650;8.116;2023-12-20T05:41:33;100950.63;;;6.09;100.00
29535;BME280;72082;52.650;8.116;2023-12-20T05:43:58;100943.00;;;6.10;100.00
29535;BME280;72082;52.650;8.116;2023-12-20T05:46:24;100931.16;;;6.09;100.00
29535;BME280;72082;52.650;8.116;2023-12-20T05:48:49;100935.31;;;6.06;100.00
29535;BME280;72082;52.650;8.116;2023-12-20T05:51:14;100930.16;;;6.03;100.00
29535;BME280;72082;52.650;8.116;2023-12-20T05:53:40;100936.94;;;6.02;100.00
29535;BME280;72082;52.650;8.116;2023-12-20T05:56:05;100937.84;;;6.04;100.00
29535;BME280;72082;52.650;8.116;2023-12-20T05:58:31;100941.31;;;6.09;100.00
29535;BME280;72082;52.650;8.116;2023-12-20T06:00:56;100946.47;;;6.12;100.00
29535;BME280;72082;52.650;8.116;2023-12-20T06:03:22;100935.50;;;6.16;100.00
29535;BME280;72082;52.650;8.116;2023-12-20T06:05:47;100935.50;;;6.18;100.00
29535;BME280;72082;52.650;8.116;2023-12-20T06:08:12;100936.44;;;6.21;100.00
29535;BME280;72082;52.650;8.116;2023-12-20T06:10:37;100938.19;;;6.24;100.00
29535;BME280;72082;52.650;8.116;2023-12-20T06:13:02;100927.19;;;6.27;100.00
29535;BME280;72082;52.650;8.116;2023-12-20T06:15:28;100932.28;;;6.27;100.00
29535;BME280;72082;52.650;8.116;2023-12-20T06:17:53;100934.88;;;6.30;100.00
29535;BME280;72082;52.650;8.116;2023-12-20T06:20:18;100935.81;;;6.33;100.00
29535;BME280;72082;52.650;8.116;2023-12-20T06:22:43;100938.38;;;6.36;100.00
29535;BME280;72082;52.650;8.116;2023-12-20T06:25:09;100926.50;;;6.37;100.00
29535;BME280;72082;52.650;8.116;2023-12-20T06:27:34;100925.72;;;6.39;100.00
29535;BME280;72082;52.650;8.116;2023-12-20T06:29:59;100921.47;;;6.40;100.00
29535;BME280;72082;52.650;8.116;2023-12-20T06:32:24;100914.72;;;6.42;100.00
29535;BME280;72082;52.650;8.116;2023-12-20T06:34:50;100913.03;;;6.42;100.00
29535;BME280;72082;52.650;8.116;2023-12-20T06:37:15;100906.28;;;6.43;100.00
29535;BME280;72082;52.650;8.116;2023-12-20T06:39:40;100885.03;;;6.42;100.00
29535;BME280;72082;52.650;8.116;2023-12-20T06:42:05;100891.84;;;6.43;100.00
29535;BME280;72082;52.650;8.116;2023-12-20T06:44:31;100896.94;;;6.43;100.00
29535;BME280;72082;52.650;8.116;2023-12-20T06:46:56;100899.50;;;6.43;100.00
29535;BME280;72082;52.650;8.116;2023-12-20T06:49:21;100894.41;;;6.45;100.00
29535;BME280;72082;52.650;8.116;2023-12-20T06:51:46;100885.91;;;6.43;100.00
29535;BME280;72082;52.650;8.116;2023-12-20T06:54:12;100881.69;;;6.43;100.00
29535;BME280;72082;52.650;8.116;2023-12-20T06:56:37;100885.09;;;6.44;100.00
29535;BME280;72082;52.650;8.116;2023-12-20T06:59:02;100880.00;;;6.44;100.00
29535;BME280;72082;52.650;8.116;2023-12-20T07:01:27;100889.28;;;6.42;100.00
29535;BME280;72082;52.650;8.116;2023-12-20T07:03:52;100887.59;;;6.42;100.00
29535;BME280;72082;52.650;8.116;2023-12-20T07:06:17;100887.66;;;6.45;100.00
29535;BME280;72082;52.650;8.116;2023-12-20T07:08:43;100879.19;;;6.48;100.00
29535;BME280;72082;52.650;8.116;2023-12-20T07:11:08;100882.63;;;6.50;100.00
29535;BME280;72082;52.650;8.116;2023-12-20T07:13:33;100890.25;;;6.50;100.00
29535;BME280;72082;52.650;8.116;2023-12-20T07:15:58;100886.00;;;6.49;100.00
29535;BME280;72082;52.650;8.116;2023-12-20T07:18:24;100878.38;;;6.49;100.00
29535;BME280;72082;52.650;8.116;2023-12-20T07:20:49;100867.34;;;6.48;100.00
29535;BME280;72082;52.650;8.116;2023-12-20T07:23:14;100856.31;;;6.49;100.00
29535;BME280;72082;52.650;8.116;2023-12-20T07:25:39;100875.91;;;6.53;100.00
29535;BME280;72082;52.650;8.116;2023-12-20T07:28:05;100892.91;;;6.56;100.00
29535;BME280;72082;52.650;8.116;2023-12-20T07:30:30;100872.59;;;6.59;100.00
29535;BME280;72082;52.650;8.116;2023-12-20T07:32:56;100859.88;;;6.60;100.00
29535;BME280;72082;52.650;8.116;2023-12-20T07:35:23;100859.03;;;6.61;100.00
29535;BME280;72082;52.650;8.116;2023-12-20T07:37:48;100870.91;;;6.62;100.00
29535;BME280;72082;52.650;8.116;2023-12-20T07:40:13;100877.75;;;6.65;100.00
29535;BME280;72082;52.650;8.116;2023-12-20T07:42:39;100851.47;;;6.66;100.00
29535;BME280;72082;52.650;8.116;2023-12-20T07:45:05;100842.97;;;6.64;100.00
29535;BME280;72082;52.650;8.116;2023-12-20T07:47:30;100854.00;;;6.66;100.00
29535;BME280;72082;52.650;8.116;2023-12-20T07:49:55;100860.78;;;6.65;100.00
29535;BME280;72082;52.650;8.116;2023-12-20T07:52:21;100874.38;;;6.66;100.00
29535;BME280;72082;52.650;8.116;2023-12-20T07:54:46;100871.00;;;6.67;100.00
29535;BME280;72082;52.650;8.116;2023-12-20T07:57:11;100871.03;;;6.68;100.00
29535;BME280;72082;52.650;8.116;2023-12-20T07:59:37;100867.63;;;6.68;100.00
29535;BME280;72082;52.650;8.116;2023-12-20T08:02:02;100864.25;;;6.69;100.00
29535;BME280;72082;52.650;8.116;2023-12-20T08:04:27;100877.75;;;6.65;100.00
29535;BME280;72082;52.650;8.116;2023-12-20T08:06:53;100864.09;;;6.60;100.00
29535;BME280;72082;52.650;8.116;2023-12-20T08:09:18;100868.22;;;6.52;100.00
29535;BME280;72082;52.650;8.116;2023-12-20T08:11:47;100862.19;;;6.47;100.00
29535;BME280;72082;52.650;8.116;2023-12-20T08:14:12;100857.03;;;6.41;100.00
29535;BME280;72082;52.650;8.116;2023-12-20T08:16:38;100868.84;;;6.37;100.00
29535;BME280;72082;52.650;8.116;2023-12-20T08:19:03;100864.56;;;6.35;100.00
29535;BME280;72082;52.650;8.116;2023-12-20T08:21:28;100851.78;;;6.32;100.00
29535;BME280;72082;52.650;8.116;2023-12-20T08:23:54;100850.94;;;6.31;100.00
29535;BME280;72082;52.650;8.116;2023-12-20T08:26:19;100856.88;;;6.30;100.00
29535;BME280;72082;52.650;8.116;2023-12-20T08:28:45;100866.19;;;6.28;100.00
29535;BME280;72082;52.650;8.116;2023-12-20T08:31:14;100862.78;;;6.29;100.00
29535;BME280;72082;52.650;8.116;2023-12-20T08:33:39;100872.13;;;6.30;100.00
29535;BME280;72082;52.650;8.116;2023-12-20T08:36:05;100859.47;;;6.33;100.00
29535;BME280;72082;52.650;8.116;2023-12-20T08:38:30;100857.78;;;6.35;100.00
29535;BME280;72082;52.650;8.116;2023-12-20T08:40:55;100864.56;;;6.36;100.00
29535;BME280;72082;52.650;8.116;2023-12-20T08:43:20;100890.88;;;6.37;100.00
29535;BME280;72082;52.650;8.116;2023-12-20T08:45:46;100862.91;;;6.37;100.00
29535;BME280;72082;52.650;8.116;2023-12-20T08:48:11;100866.25;;;6.34;100.00
29535;BME280;72082;52.650;8.116;2023-12-20T08:50:36;100837.41;;;6.34;100.00
29535;BME280;72082;52.650;8.116;2023-12-20T08:53:01;100847.56;;;6.34;100.00
29535;BME280;72082;52.650;8.116;2023-12-20T08:55:26;100839.06;;;6.32;100.00
29535;BME280;72082;52.650;8.116;2023-12-20T08:57:52;100829.75;;;6.31;100.00
29535;BME280;72082;52.650;8.116;2023-12-20T09:00:17;100839.06;;;6.30;100.00
29535;BME280;72082;52.650;8.116;2023-12-20T09:02:42;100827.19;;;6.31;100.00
29535;BME280;72082;52.650;8.116;2023-12-20T09:05:08;100837.38;;;6.32;100.00
29535;BME280;72082;52.650;8.116;2023-12-20T09:07:33;100841.66;;;6.35;100.00
29535;BME280;72082;52.650;8.116;2023-12-20T09:09:58;100838.31;;;6.36;100.00
29535;BME280;72082;52.650;8.116;2023-12-20T09:12:24;100834.91;;;6.37;100.00
29535;BME280;72082;52.650;8.116;2023-12-20T09:14:51;100833.25;;;6.39;100.00
29535;BME280;72082;52.650;8.116;2023-12-20T09:17:17;100831.59;;;6.41;100.00
29535;BME280;72082;52.650;8.116;2023-12-20T09:19:43;100830.72;;;6.42;100.00
29535;BME280;72082;52.650;8.116;2023-12-20T09:22:08;100831.66;;;6.44;100.00
29535;BME280;72082;52.650;8.116;2023-12-20T09:24:33;100818.91;;;6.45;100.00
29535;BME280;72082;52.650;8.116;2023-12-20T09:26:58;100815.56;;;6.46;100.00
29535;BME280;72082;52.650;8.116;2023-12-20T09:29:24;100823.19;;;6.48;100.00
29535;BME280;72082;52.650;8.116;2023-12-20T09:31:49;100822.38;;;6.49;100.00
29535;BME280;72082;52.650;8.116;2023-12-20T09:34:15;100820.66;;;6.49;100.00
29535;BME280;72082;52.650;8.116;2023-12-20T09:36:40;100807.94;;;6.49;100.00
29535;BME280;72082;52.650;8.116;2023-12-20T09:39:06;100817.31;;;6.50;100.00
29535;BME280;72082;52.650;8.116;2023-12-20T09:41:33;100790.16;;;6.51;100.00
29535;BME280;72082;52.650;8.116;2023-12-20T09:44:02;100803.75;;;6.53;100.00
29535;BME280;72082;52.650;8.116;2023-12-20T09:46:28;100804.63;;;6.55;100.00
29535;BME280;72082;52.650;8.116;2023-12-20T09:48:59;100808.09;;;6.58;100.00
29535;BME280;72082;52.650;8.116;2023-12-20T09:51:25;100813.22;;;6.61;100.00
29535;BME280;72082;52.650;8.116;2023-12-20T09:53:51;100815.81;;;6.66;100.00
29535;BME280;72082;52.650;8.116;2023-12-20T09:56:19;100809.06;;;6.68;100.00
29535;BME280;72082;52.650;8.116;2023-12-20T09:58:44;100806.59;;;6.74;100.00
29535;BME280;72082;52.650;8.116;2023-12-20T10:01:09;100814.38;;;6.84;100.00
29535;BME280;72082;52.650;8.116;2023-12-20T10:03:37;100815.31;;;6.91;100.00
29535;BME280;72082;52.650;8.116;2023-12-20T10:06:04;100784.00;;;6.98;100.00
29535;BME280;72082;52.650;8.116;2023-12-20T10:08:29;100804.28;;;6.94;100.00
29535;BME280;72082;52.650;8.116;2023-12-20T10:10:54;100810.19;;;6.88;100.00
29535;BME280;72082;52.650;8.116;2023-12-20T10:13:20;100796.56;;;6.86;100.00
29535;BME280;72082;52.650;8.116;2023-12-20T10:15:45;100778.72;;;6.84;100.00
29535;BME280;72082;52.650;8.116;2023-12-20T10:18:12;100766.00;;;6.86;100.00
29535;BME280;72082;52.650;8.116;2023-12-20T10:20:37;100783.88;;;6.88;100.00
29535;BME280;72082;52.650;8.116;2023-12-20T10:23:02;100778.81;;;6.94;100.00
29535;BME280;72082;52.650;8.116;2023-12-20T10:25:28;100812.88;;;6.99;100.00
29535;BME280;72082;52.650;8.116;2023-12-20T10:28:09;100816.25;;;6.99;100.00
29535;BME280;72082;52.650;8.116;2023-12-20T10:30:35;100804.19;;;6.84;100.00
29535;BME280;72082;52.650;8.116;2023-12-20T10:33:00;100826.88;;;6.68;100.00
29535;BME280;72082;52.650;8.116;2023-12-20T10:35:25;100858.19;;;6.62;100.00
29535;BME280;72082;52.650;8.116;2023-12-20T10:37:55;100887.69;;;6.50;100.00
29535;BME280;72082;52.650;8.116;2023-12-20T10:40:21;100858.25;;;6.11;100.00
29535;BME280;72082;52.650;8.116;2023-12-20T10:42:46;100813.09;;;5.52;100.00
29535;BME280;72082;52.650;8.116;2023-12-20T10:45:12;100815.03;;;5.20;100.00
29535;BME280;72082;52.650;8.116;2023-12-20T10:47:37;100836.81;;;5.09;100.00
29535;BME280;72082;52.650;8.116;2023-12-20T10:50:05;100858.00;;;5.10;100.00
29535;BME280;72082;52.650;8.116;2023-12-20T10:52:32;100875.91;;;5.16;100.00
29535;BME280;72082;52.650;8.116;2023-12-20T10:54:57;100894.72;;;5.25;100.00
29535;BME280;72082;52.650;8.116;2023-12-20T10:57:22;100909.31;;;5.35;100.00
29535;BME280;72082;52.650;8.116;2023-12-20T10:59:53;100904.47;;;5.46;100.00
29535;BME280;72082;52.650;8.116;2023-12-20T11:02:19;100927.53;;;5.55;100.00
29535;BME280;72082;52.650;8.116;2023-12-20T11:07:38;100900.59;;;5.65;100.00
29535;BME280;72082;52.650;8.116;2023-12-20T11:10:22;100895.53;;;5.66;100.00
29535;BME280;72082;52.650;8.116;2023-12-20T11:13:20;100891.34;;;5.68;100.00
29535;BME280;72082;52.650;8.116;2023-12-20T11:15:46;100873.56;;;5.68;100.00
29535;BME280;72082;52.650;8.116;2023-12-20T11:18:11;100868.50;;;5.71;100.00
29535;BME280;72082;52.650;8.116;2023-12-20T11:20:38;100870.31;;;5.77;100.00
29535;BME280;72082;52.650;8.116;2023-12-20T11:23:04;100872.13;;;5.82;100.00
29535;BME280;72082;52.650;8.116;2023-12-20T11:25:29;100877.28;;;5.85;100.00
29535;BME280;72082;52.650;8.116;2023-12-20T11:28:15;100860.38;;;5.87;100.00
29535;BME280;72082;52.650;8.116;2023-12-20T11:31:02;100857.81;;;5.87;100.00
29535;BME280;72082;52.650;8.116;2023-12-20T11:33:30;100848.53;;;5.89;100.00
29535;BME280;72082;52.650;8.116;2023-12-20T11:35:56;100849.50;;;5.94;100.00
29535;BME280;72082;52.650;8.116;2023-12-20T11:38:22;100844.56;;;6.03;100.00
29535;BME280;72082;52.650;8.116;2023-12-20T11:40:49;100837.91;;;6.11;100.00
29535;BME280;72082;52.650;8.116;2023-12-20T11:43:35;100827.09;;;6.23;100.00
29535;BME280;72082;52.650;8.116;2023-12-20T11:46:09;100830.72;;;7.00;100.00
29535;BME280;72082;52.650;8.116;2023-12-20T11:48:38;100812.53;;;7.43;100.00
29535;BME280;72082;52.650;8.116;2023-12-20T11:51:13;100804.38;;;7.76;100.00
29535;BME280;72082;52.650;8.116;2023-12-20T11:53:40;100790.06;;;7.92;100.00
29535;BME280;72082;52.650;8.116;2023-12-20T11:56:06;100784.88;;;7.84;100.00
29535;BME280;72082;52.650;8.116;2023-12-20T11:58:32;100777.91;;;7.67;100.00
29535;BME280;72082;52.650;8.116;2023-12-20T12:00:57;100787.94;;;7.47;100.00
29535;BME280;72082;52.650;8.116;2023-12-20T12:03:23;100799.66;;;7.31;100.00
29535;BME280;72082;52.650;8.116;2023-12-20T12:05:48;100801.19;;;7.16;100.00
29535;BME280;72082;52.650;8.116;2023-12-20T12:08:13;100801.06;;;7.04;100.00
29535;BME280;72082;52.650;8.116;2023-12-20T12:10:39;100809.44;;;6.97;100.00
29535;BME280;72082;52.650;8.116;2023-12-20T12:13:04;100822.13;;;6.92;100.00
29535;BME280;72082;52.650;8.116;2023-12-20T12:15:29;100813.47;;;6.81;100.00
29535;BME280;72082;52.650;8.116;2023-12-20T12:17:55;100830.34;;;6.73;100.00
29535;BME280;72082;52.650;8.116;2023-12-20T12:20:21;100820.91;;;6.66;100.00
29535;BME280;72082;52.650;8.116;2023-12-20T12:23:06;100824.22;;;6.59;100.00
29535;BME280;72082;52.650;8.116;2023-12-20T12:25:33;100830.09;;;6.55;100.00
29535;BME280;72082;52.650;8.116;2023-12-20T12:27:59;100842.75;;;6.50;100.00
29535;BME280;72082;52.650;8.116;2023-12-20T12:30:25;100832.53;;;6.47;100.00
29535;BME280;72082;52.650;8.116;2023-12-20T12:32:51;100829.09;;;6.45;100.00
29535;BME280;72082;52.650;8.116;2023-12-20T12:35:17;100829.97;;;6.46;100.00
29535;BME280;72082;52.650;8.116;2023-12-20T12:37:43;100833.38;;;6.46;100.00
29535;BME280;72082;52.650;8.116;2023-12-20T12:40:16;100832.53;;;6.47;100.00
29535;BME280;72082;52.650;8.116;2023-12-20T12:42:43;100828.34;;;6.51;100.00
29535;BME280;72082;52.650;8.116;2023-12-20T12:45:09;100831.81;;;6.56;100.00
29535;BME280;72082;52.650;8.116;2023-12-20T12:47:34;100832.72;;;6.61;100.00
29535;BME280;72082;52.650;8.116;2023-12-20T12:50:00;100827.63;;;6.61;100.00
29535;BME280;72082;52.650;8.116;2023-12-20T12:52:25;100836.09;;;6.60;100.00